Time;durP1;ratioP1;P1;durP2;ratioP2;P2;SDS_P1;SDS_P2;PMS_P1;PMS_P2;Temp;Humidity;BMP_temperature;BMP_pressure;BME280_temperature;BME280_humidity;BME280_pressure;Samples;Min_cycle;Max_cycle;Signal;HPM_P1;HPM_P2
2021/02/02 00:02:36;;;;;;;79.9;49;;;;;;;-7.93;85.29883;97606.69;;;;
2021/02/02 00:12:35;;;;;;;82.6;41.9;;;;;;;-7.92;84.93652;97601.25;;;;
2021/02/02 00:22:30;;;;;;;79.7;40.1;;;;;;;-7.91;84.74414;97612.52;;;;
2021/02/02 00:32:26;;;;;;;79.3;40.6;;;;;;;-7.9;85.41406;97601.83;;;;
2021/02/02 00:42:23;;;;;;;65.1;34.2;;;;;;;-7.88;84.98633;97612.08;;;;
2021/02/02 00:52:20;;;;;;;51.1;30.9;;;;;;;-7.92;84.51563;97606.48;;;;
2021/02/02 01:02:17;;;;;;;57.5;28.3;;;;;;;-7.91;85.66016;97586.38;;;;
2021/02/02 01:12:14;;;;;;;61.1;32.9;;;;;;;-7.87;86.2168;97582.28;;;;
2021/02/02 01:22:11;;;;;;;94.8;52.4;;;;;;;-7.94;85.26465;97592;;;;
2021/02/02 01:32:08;;;;;;;80.1;41.3;;;;;;;-8.05;84.48926;97588.27;;;;
2021/02/02 01:42:04;;;;;;;64.2;32.1;;;;;;;-8.03;84.04004;97601.95;;;;
2021/02/02 01:52:01;;;;;;;69.6;37.5;;;;;;;-8.22;83.17285;97614.14;;;;
2021/02/02 02:01:58;;;;;;;79.7;42.6;;;;;;;-8.46;82.89941;97619.36;;;;
2021/02/02 02:11:55;;;;;;;81.9;46.2;;;;;;;-8.63;85.61914;97606;;;;
2021/02/02 02:21:52;;;;;;;55.9;32.1;;;;;;;-8.55;85.35645;97608.38;;;;
2021/02/02 02:31:49;;;;;;;54.1;31.2;;;;;;;-8.51;84.83594;97598.31;;;;
2021/02/02 02:41:45;;;;;;;47.8;28.8;;;;;;;-8.49;83.9375;97610.14;;;;
2021/02/02 02:51:42;;;;;;;56.7;29.7;;;;;;;-8.52;83.4375;97618.4;;;;
2021/02/02 03:01:39;;;;;;;62;32.3;;;;;;;-8.53;83.16504;97624.63;;;;
2021/02/02 03:21:32;;;;;;;54.8;31.1;;;;;;;-8.63;83.98242;97633.92;;;;
2021/02/02 03:31:29;;;;;;;49.5;30.8;;;;;;;-8.62;84.06152;97643.37;;;;
2021/02/02 03:41:26;;;;;;;57.7;29.8;;;;;;;-8.74;83.11133;97632.77;;;;
2021/02/02 03:51:23;;;;;;;52.7;27.9;;;;;;;-8.76;83.18262;97642.63;;;;
2021/02/02 04:01:19;;;;;;;61.8;35;;;;;;;-8.79;84.11328;97640.44;;;;
2021/02/02 04:11:16;;;;;;;58.7;30.8;;;;;;;-8.71;84.1748;97648.82;;;;
2021/02/02 04:21:13;;;;;;;62.2;32.2;;;;;;;-8.68;83.38184;97668.52;;;;
2021/02/02 04:31:10;;;;;;;63.1;31.4;;;;;;;-8.8;83.37988;97685.83;;;;
2021/02/02 04:41:06;;;;;;;70.1;30.6;;;;;;;-8.69;83.68359;97691.21;;;;
2021/02/02 04:51:03;;;;;;;63.4;28.1;;;;;;;-8.6;83.32422;97717.88;;;;
2021/02/02 05:01:00;;;;;;;58.2;34.8;;;;;;;-8.6;82.71973;97717.07;;;;
2021/02/02 05:10:57;;;;;;;75.6;35.6;;;;;;;-8.72;83.28906;97722.16;;;;
2021/02/02 05:20:54;;;;;;;63;35.7;;;;;;;-8.63;82.62695;97722.71;;;;
2021/02/02 05:30:51;;;;;;;70.9;35.9;;;;;;;-8.38;83.02246;97734.06;;;;
2021/02/02 05:40:47;;;;;;;67.3;39.4;;;;;;;-8.08;83.5459;97750.76;;;;
2021/02/02 05:50:44;;;;;;;85.5;48.7;;;;;;;-7.67;83.37988;97753.72;;;;
2021/02/02 06:00:48;;;;;;;102.9;59.8;;;;;;;-7.43;84.54883;97767.86;;;;
2021/02/02 06:10:42;;;;;;;75.1;49.8;;;;;;;-6.93;85.12402;97758.13;;;;
2021/02/02 06:20:35;;;;;;;117.4;72;;;;;;;-6.6;85.91602;97762.23;;;;
2021/02/02 06:30:32;;;;;;;81.9;48.3;;;;;;;-6.36;85.14453;97749.05;;;;
2021/02/02 06:40:31;;;;;;;109.3;65.1;;;;;;;-5.88;85.79102;97750.84;;;;
2021/02/02 06:50:27;;;;;;;111.9;77.6;;;;;;;-5.66;84.21191;97738.8;;;;
2021/02/02 07:00:24;;;;;;;112.4;70.8;;;;;;;-5.31;83.87109;97752.76;;;;
2021/02/02 07:10:21;;;;;;;105.4;79.4;;;;;;;-5.13;84.04785;97759.74;;;;
2021/02/02 07:20:18;;;;;;;149.8;102;;;;;;;-4.74;84.89453;97753;;;;
2021/02/02 07:30:16;;;;;;;116.7;77;;;;;;;-4.45;84.7998;97767.03;;;;
2021/02/02 07:40:13;;;;;;;117.7;85.8;;;;;;;-4;85;97751.35;;;;
2021/02/02 07:50:10;;;;;;;130.2;84.1;;;;;;;-3.76;84.40723;97747.59;;;;
2021/02/02 08:00:08;;;;;;;142.8;101.6;;;;;;;-3.46;84.3584;97748.09;;;;
2021/02/02 08:10:05;;;;;;;146.6;92.4;;;;;;;-3.32;84.77734;97730.14;;;;
2021/02/02 08:20:02;;;;;;;151.4;104.1;;;;;;;-3;82.61816;97749.63;;;;
2021/02/02 08:30:00;;;;;;;131;99.1;;;;;;;-2.64;81.37598;97758.85;;;;
2021/02/02 08:39:57;;;;;;;121.3;88.8;;;;;;;-2.69;79.68457;97766.68;;;;
2021/02/02 08:49:55;;;;;;;129.5;82;;;;;;;-2.91;81.10645;97769.26;;;;
2021/02/02 08:59:52;;;;;;;84.7;66.2;;;;;;;-2.13;79.06836;97798.05;;;;
2021/02/02 09:09:50;;;;;;;111.2;72.1;;;;;;;-1.55;78.23242;97807.13;;;;
2021/02/02 09:19:47;;;;;;;95.1;67.4;;;;;;;-1.16;76.99902;97810.42;;;;
2021/02/02 09:29:45;;;;;;;93.8;72.4;;;;;;;-0.65;76.75;97811.61;;;;
2021/02/02 09:39:44;;;;;;;104.5;78.8;;;;;;;0.08;74.99805;97812.55;;;;
2021/02/02 09:49:41;;;;;;;103.3;82;;;;;;;0.78;71.49121;97812.75;;;;
2021/02/02 09:59:43;;;;;;;103.2;86.4;;;;;;;1.23;69.23242;97816.48;;;;
2021/02/02 10:09:36;;;;;;;100.6;80.4;;;;;;;1.38;69.03418;97811.18;;;;
2021/02/02 10:19:34;;;;;;;108.7;78.4;;;;;;;1.6;68.33887;97819.63;;;;
2021/02/02 10:29:32;;;;;;;109.3;78;;;;;;;1.9;66.44727;97819.59;;;;
2021/02/02 10:39:30;;;;;;;103.4;81.4;;;;;;;1.77;66.8252;97830.75;;;;
2021/02/02 10:49:29;;;;;;;104.3;73.4;;;;;;;2.33;65.40332;97831.38;;;;
2021/02/02 10:59:26;;;;;;;111.8;85.1;;;;;;;2.6;64.34375;97823.02;;;;
2021/02/02 11:09:24;;;;;;;103.1;82.5;;;;;;;2.97;63.375;97835.83;;;;
2021/02/02 11:19:23;;;;;;;124.5;95.3;;;;;;;3.5;62.2832;97831.42;;;;
2021/02/02 11:29:20;;;;;;;117.9;89.2;;;;;;;3.39;61.64453;97836.05;;;;
2021/02/02 11:39:18;;;;;;;102.7;80.4;;;;;;;3;61.94336;97840.59;;;;
2021/02/02 11:49:17;;;;;;;69.1;57.3;;;;;;;3.31;60.49512;97833.17;;;;
2021/02/02 11:59:15;;;;;;;76;66;;;;;;;3.57;62.1709;97815.11;;;;
2021/02/02 12:09:13;;;;;;;84.4;62.3;;;;;;;3.54;61.00684;97824.44;;;;
2021/02/02 12:19:11;;;;;;;88.9;67.2;;;;;;;3.37;60.51465;97837.38;;;;
2021/02/02 12:29:09;;;;;;;95.6;80.2;;;;;;;3.57;62.41602;97821.24;;;;
2021/02/02 12:39:09;;;;;;;103.4;86.1;;;;;;;3.64;63.03027;97813.72;;;;
2021/02/02 12:49:07;;;;;;;127.1;99.4;;;;;;;3.46;64.12695;97814.41;;;;
2021/02/02 12:59:04;;;;;;;121.4;92.1;;;;;;;3.39;63.18066;97816.6;;;;
2021/02/02 13:09:02;;;;;;;111.2;85.4;;;;;;;3.19;64.87793;97798.94;;;;
2021/02/02 13:19:00;;;;;;;120.6;91.5;;;;;;;3.22;65.97266;97816.22;;;;
2021/02/02 13:28:58;;;;;;;109.9;87.5;;;;;;;3.32;64.49707;97808.94;;;;
2021/02/02 13:38:57;;;;;;;154;129;;;;;;;3.17;65.38574;97818.91;;;;
2021/02/02 13:48:55;;;;;;;121.2;103.6;;;;;;;3.21;65.87109;97815.41;;;;
2021/02/02 13:58:53;;;;;;;145.2;115.2;;;;;;;3.27;65.94727;97816.16;;;;
2021/02/02 14:08:51;;;;;;;115.9;90.7;;;;;;;3.12;67.45898;97816.3;;;;
2021/02/02 14:18:49;;;;;;;105.1;80;;;;;;;3.08;67.44043;97812.59;;;;
2021/02/02 14:28:47;;;;;;;136;102.3;;;;;;;3.08;67.94238;97810.73;;;;
2021/02/02 14:38:45;;;;;;;106.6;75.2;;;;;;;2.88;68.97754;97808.98;;;;
2021/02/02 14:48:44;;;;;;;99;71.4;;;;;;;2.69;70.3877;97809.92;;;;
2021/02/02 14:58:42;;;;;;;98.1;66.5;;;;;;;2.48;71.01953;97790.63;;;;
2021/02/02 15:08:41;;;;;;;87.5;68;;;;;;;2.41;71.05371;97787.47;;;;
2021/02/02 15:18:41;;;;;;;83.5;64.8;;;;;;;2.3;71.65527;97801.88;;;;
2021/02/02 15:28:36;;;;;;;87;67.4;;;;;;;2.12;72.40039;97799.85;;;;
2021/02/02 15:38:34;;;;;;;83.3;63.4;;;;;;;2.01;74.02148;97804.41;;;;
2021/02/02 15:48:32;;;;;;;78.5;59.4;;;;;;;1.95;74.11133;97811.59;;;;
2021/02/02 15:58:30;;;;;;;95.9;76.7;;;;;;;1.88;74.66406;97811.08;;;;
2021/02/02 16:08:28;;;;;;;92.3;69.3;;;;;;;1.83;74.58789;97829.7;;;;
2021/02/02 16:18:26;;;;;;;109.8;80;;;;;;;1.72;76.02734;97824.67;;;;
2021/02/02 16:28:24;;;;;;;116.7;97.1;;;;;;;1.65;76.14844;97819.64;;;;
2021/02/02 16:38:22;;;;;;;112.5;91.2;;;;;;;1.4;77.8584;97803.73;;;;
2021/02/02 16:48:20;;;;;;;48.3;35.9;;;;;;;1.75;80.81738;97801.02;;;;
2021/02/02 16:58:18;;;;;;;33.7;24.9;;;;;;;2.27;80.84863;97795.25;;;;
2021/02/02 17:08:16;;;;;;;31.9;21.1;;;;;;;2.53;80.79785;97806.57;;;;
2021/02/02 17:18:14;;;;;;;46.7;27.1;;;;;;;2.67;79.90625;97802.23;;;;
2021/02/02 17:28:12;;;;;;;43.6;27;;;;;;;2.7;79.1582;97803.55;;;;
2021/02/02 17:38:10;;;;;;;40.8;31.5;;;;;;;2.62;79.35547;97802.25;;;;
2021/02/02 17:48:08;;;;;;;38.2;21.4;;;;;;;2.47;80.57617;97812.96;;;;
2021/02/02 17:58:06;;;;;;;26.7;22;;;;;;;2.48;80.76758;97810.04;;;;
2021/02/02 18:08:04;;;;;;;26.1;19.5;;;;;;;2.49;80.64746;97824.94;;;;
2021/02/02 18:18:02;;;;;;;23.6;19;;;;;;;2.71;80.34277;97818.44;;;;
2021/02/02 18:28:00;;;;;;;66.6;43.6;;;;;;;2.7;79.33594;97814.98;;;;
2021/02/02 18:37:58;;;;;;;59.4;48.8;;;;;;;2.47;78.89648;97813.77;;;;
2021/02/02 18:47:56;;;;;;;68.7;58.7;;;;;;;2.18;78.74219;97806.73;;;;
2021/02/02 18:57:54;;;;;;;24.1;19.7;;;;;;;2.17;81.58105;97782.02;;;;
2021/02/02 19:07:52;;;;;;;30.7;14.2;;;;;;;2.34;81.50195;97776.34;;;;
2021/02/02 19:17:50;;;;;;;34.5;18.7;;;;;;;2.41;81.91504;97771.52;;;;
2021/02/02 19:27:48;;;;;;;25.8;22.4;;;;;;;2.56;81.02539;97766.13;;;;
2021/02/02 19:37:46;;;;;;;22.5;19.7;;;;;;;2.63;81.00391;97763.95;;;;
2021/02/02 19:47:44;;;;;;;44.7;29.1;;;;;;;2.74;80.55957;97751.38;;;;
2021/02/02 19:57:42;;;;;;;47.4;34.4;;;;;;;2.72;80.51172;97756.16;;;;
2021/02/02 20:07:41;;;;;;;32.5;29;;;;;;;2.58;80.54199;97748.02;;;;
2021/02/02 20:27:36;;;;;;;22.5;20;;;;;;;2.57;80.79492;97746.41;;;;
2021/02/02 20:37:34;;;;;;;20;17.8;;;;;;;2.65;80.875;97753.02;;;;
2021/02/02 20:47:32;;;;;;;37.6;26.6;;;;;;;2.62;82.41797;97734.95;;;;
2021/02/02 20:57:30;;;;;;;35.3;26.7;;;;;;;2.72;82.75977;97725.03;;;;
2021/02/02 21:07:28;;;;;;;37.9;28.8;;;;;;;2.78;84.07422;97713.27;;;;
2021/02/02 21:17:26;;;;;;;37.5;27.3;;;;;;;2.77;85.44336;97709.05;;;;
2021/02/02 21:27:24;;;;;;;30;24.6;;;;;;;2.85;85.66992;97700.45;;;;
2021/02/02 21:37:22;;;;;;;33.8;26.8;;;;;;;2.87;87.13184;97689.54;;;;
2021/02/02 21:47:20;;;;;;;49.8;41.2;;;;;;;2.82;87.69531;97697.55;;;;
2021/02/02 21:57:19;;;;;;;101.9;82.5;;;;;;;2.77;87.47656;97679.78;;;;
2021/02/02 22:07:17;;;;;;;78.3;60.1;;;;;;;2.74;87.4375;97693.62;;;;
2021/02/02 22:17:15;;;;;;;46.9;39.1;;;;;;;2.62;89.90625;97689.73;;;;
2021/02/02 22:27:13;;;;;;;38.4;32.7;;;;;;;2.58;90.34961;97680.72;;;;
2021/02/02 22:37:11;;;;;;;43;26.8;;;;;;;2.61;89.8916;97661.54;;;;
2021/02/02 22:47:09;;;;;;;34.4;24;;;;;;;2.75;90.43066;97657.17;;;;
2021/02/02 22:57:07;;;;;;;21.9;15.2;;;;;;;3.29;89.28418;97647.07;;;;
2021/02/02 23:07:05;;;;;;;17.2;12.3;;;;;;;3.38;88.50684;97636.57;;;;
2021/02/02 23:17:03;;;;;;;15.4;11;;;;;;;3.6;87.35547;97606.75;;;;
2021/02/02 23:27:01;;;;;;;17.7;10.9;;;;;;;3.54;87.25684;97608.66;;;;
2021/02/02 23:36:59;;;;;;;24;12.3;;;;;;;3.51;87.7373;97612.7;;;;
2021/02/02 23:46:57;;;;;;;20.4;15.1;;;;;;;3.52;87.91504;97594.85;;;;
2021/02/02 23:56:56;;;;;;;26.5;18.8;;;;;;;3.51;87.80371;97595.92;;;;
